Time;durP1;ratioP1;P1;durP2;ratioP2;P2;SDS_P1;SDS_P2;PMS_P1;PMS_P2;Temp;Humidity;BMP_temperature;BMP_pressure;BME280_temperature;BME280_humidity;BME280_pressure;Samples;Min_cycle;Max_cycle;Signal;HPM_P1;HPM_P2
2023/09/10 00:01:21;;;;;;;5.37;2.20;;;;;;;;;;4354715;32;419403;-91
2023/09/10 00:03:49;;;;;;;5.10;2.05;;;;;;;;;;4367568;32;316925;-95
2023/09/10 00:06:16;;;;;;;7.15;2.50;;;;;;;;;;4354555;32;316565;-95
2023/09/10 00:08:44;;;;;;;4.85;1.67;;;;;;;;;;4368075;32;316569;-94
2023/09/10 00:11:11;;;;;;;5.82;2.15;;;;;;;;;;4357496;32;317284;-90
2023/09/10 00:13:39;;;;;;;5.20;2.67;;;;;;;;;;4366509;32;316540;-91
2023/09/10 00:16:08;;;;;;;3.47;2.03;;;;;;;;;;4353888;32;316765;-92
2023/09/10 00:18:35;;;;;;;3.10;2.22;;;;;;;;;;4370155;32;315497;-93
2023/09/10 00:21:04;;;;;;;2.90;2.00;;;;;;;;;;4357594;32;316626;-93
2023/09/10 00:23:31;;;;;;;5.35;2.50;;;;;;;;;;4367384;32;316711;-92
2023/09/10 00:25:59;;;;;;;6.97;2.87;;;;;;;;;;4356200;32;316877;-91
2023/09/10 00:28:27;;;;;;;5.00;2.42;;;;;;;;;;4364140;32;316954;-91
2023/09/10 00:30:55;;;;;;;4.12;2.53;;;;;;;;;;4356340;32;316640;-93
2023/09/10 00:33:24;;;;;;;5.03;2.67;;;;;;;;;;4368791;32;316761;-93
2023/09/10 00:35:52;;;;;;;9.10;2.80;;;;;;;;;;4368976;32;316790;-93
2023/09/10 00:38:19;;;;;;;4.60;2.40;;;;;;;;;;4347896;32;416522;-93
2023/09/10 00:40:46;;;;;;;16.08;3.17;;;;;;;;;;4366124;32;316604;-92
2023/09/10 00:43:14;;;;;;;10.05;2.87;;;;;;;;;;4357473;32;317698;-91
2023/09/10 00:45:42;;;;;;;6.03;2.58;;;;;;;;;;4367251;32;317716;-95
2023/09/10 00:48:10;;;;;;;10.45;2.20;;;;;;;;;;4355017;32;316683;-93
2023/09/10 00:50:40;;;;;;;3.33;2.35;;;;;;;;;;4368904;32;318088;-94
2023/09/10 00:53:08;;;;;;;6.35;2.53;;;;;;;;;;4356047;32;316822;-90
2023/09/10 00:55:36;;;;;;;3.58;2.08;;;;;;;;;;4367548;32;316724;-93
2023/09/10 00:58:05;;;;;;;2.65;2.05;;;;;;;;;;4355947;32;316686;-91
2023/09/10 01:00:34;;;;;;;3.45;2.22;;;;;;;;;;4367586;32;315666;-95
2023/09/10 01:03:02;;;;;;;4.87;2.15;;;;;;;;;;4358213;32;316855;-92
2023/09/10 01:05:32;;;;;;;8.27;2.35;;;;;;;;;;4367670;32;316442;-92
2023/09/10 01:08:03;;;;;;;4.82;2.72;;;;;;;;;;4358618;32;316946;-95
2023/09/10 01:10:41;;;;;;;11.68;2.37;;;;;;;;;;4366204;32;316605;-94
2023/09/10 01:13:16;;;;;;;3.00;2.08;;;;;;;;;;4357004;32;318177;-93
2023/09/10 01:15:52;;;;;;;6.32;2.20;;;;;;;;;;4367366;32;316752;-92
2023/09/10 01:18:24;;;;;;;5.75;2.00;;;;;;;;;;4354050;32;415959;-92
2023/09/10 01:21:10;;;;;;;3.85;1.87;;;;;;;;;;4371602;32;316768;-93
2023/09/10 01:23:51;;;;;;;3.42;2.05;;;;;;;;;;4356983;32;417521;-90
2023/09/10 01:26:20;;;;;;;3.72;2.03;;;;;;;;;;4351379;32;420250;-94
2023/09/10 01:28:48;;;;;;;5.25;2.40;;;;;;;;;;4370101;32;316729;-94
2023/09/10 01:31:15;;;;;;;4.65;2.65;;;;;;;;;;4356366;32;316702;-95
2023/09/10 01:33:48;;;;;;;3.28;2.10;;;;;;;;;;4369404;32;316591;-94
2023/09/10 01:36:21;;;;;;;3.78;2.53;;;;;;;;;;4356468;32;316815;-95
2023/09/10 01:38:57;;;;;;;5.78;2.75;;;;;;;;;;4368498;32;316612;-93
2023/09/10 01:41:28;;;;;;;5.40;2.42;;;;;;;;;;4355440;32;416027;-93
2023/09/10 01:43:56;;;;;;;5.40;2.20;;;;;;;;;;4359203;32;316618;-94
2023/09/10 01:46:26;;;;;;;6.37;2.47;;;;;;;;;;4365990;32;316446;-93
2023/09/10 01:48:54;;;;;;;3.85;2.08;;;;;;;;;;4358742;32;316650;-93
2023/09/10 01:51:22;;;;;;;6.60;2.30;;;;;;;;;;4369808;32;316723;-90
2023/09/10 01:53:49;;;;;;;3.83;2.78;;;;;;;;;;4368876;32;320822;-94
2023/09/10 01:56:16;;;;;;;6.93;2.25;;;;;;;;;;4355395;32;316764;-91
2023/09/10 01:58:47;;;;;;;10.25;2.50;;;;;;;;;;4365089;32;345827;-91
2023/09/10 02:01:15;;;;;;;7.32;2.40;;;;;;;;;;4359326;32;317789;-91
2023/09/10 02:03:42;;;;;;;4.10;2.45;;;;;;;;;;4368053;32;316833;-91
2023/09/10 02:06:10;;;;;;;4.30;2.57;;;;;;;;;;4354909;32;316641;-92
2023/09/10 02:08:38;;;;;;;8.15;2.42;;;;;;;;;;4369769;32;316632;-92
2023/09/10 02:11:07;;;;;;;3.35;2.10;;;;;;;;;;4358883;32;316957;-91
2023/09/10 02:13:35;;;;;;;4.65;2.10;;;;;;;;;;4367817;32;316934;-91
2023/09/10 02:16:09;;;;;;;3.03;2.33;;;;;;;;;;4357860;32;316801;-91
2023/09/10 02:18:37;;;;;;;8.10;2.30;;;;;;;;;;4366967;32;316835;-91
2023/09/10 02:21:11;;;;;;;11.45;2.10;;;;;;;;;;4357098;32;316612;-92
2023/09/10 02:23:39;;;;;;;4.95;2.62;;;;;;;;;;4369055;32;318437;-90
2023/09/10 02:26:07;;;;;;;3.15;2.10;;;;;;;;;;4358127;32;316987;-92
2023/09/10 02:28:36;;;;;;;9.27;2.03;;;;;;;;;;4362652;32;316727;-91
2023/09/10 02:31:08;;;;;;;7.70;2.78;;;;;;;;;;4355471;32;317090;-91
2023/09/10 02:33:38;;;;;;;6.28;2.65;;;;;;;;;;4367977;32;316775;-91
2023/09/10 02:36:13;;;;;;;4.30;2.15;;;;;;;;;;4356612;32;317066;-92
2023/09/10 02:38:41;;;;;;;5.53;2.75;;;;;;;;;;4368401;32;316980;-91
2023/09/10 02:41:09;;;;;;;7.18;2.47;;;;;;;;;;4356618;32;316942;-91
2023/09/10 02:43:36;;;;;;;6.28;2.83;;;;;;;;;;4377402;32;316483;-90
2023/09/10 02:46:06;;;;;;;5.60;2.80;;;;;;;;;;4369106;32;316428;-90
2023/09/10 02:48:36;;;;;;;3.97;2.08;;;;;;;;;;4382572;32;315261;-91
2023/09/10 02:51:04;;;;;;;4.07;2.37;;;;;;;;;;4371476;32;316436;-90
2023/09/10 02:53:32;;;;;;;6.87;2.65;;;;;;;;;;4380422;32;316257;-90
2023/09/10 02:56:04;;;;;;;4.15;2.45;;;;;;;;;;4375274;32;342015;-90
2023/09/10 02:58:36;;;;;;;3.85;2.70;;;;;;;;;;4380915;32;316280;-90
2023/09/10 03:01:05;;;;;;;7.62;2.72;;;;;;;;;;4358540;32;316714;-93
2023/09/10 03:03:34;;;;;;;5.00;2.95;;;;;;;;;;4369195;32;316699;-92
2023/09/10 03:06:04;;;;;;;19.85;3.03;;;;;;;;;;4358568;32;316781;-94
2023/09/10 03:08:35;;;;;;;4.70;2.72;;;;;;;;;;4369525;32;317562;-93
2023/09/10 03:11:05;;;;;;;7.68;2.50;;;;;;;;;;4359472;32;317409;-93
2023/09/10 03:13:33;;;;;;;6.70;3.00;;;;;;;;;;4366803;32;316790;-93
2023/09/10 03:16:00;;;;;;;8.32;2.95;;;;;;;;;;4355855;32;316657;-93
2023/09/10 03:18:28;;;;;;;3.55;2.20;;;;;;;;;;4344003;32;316758;-94
2023/09/10 03:20:57;;;;;;;4.62;1.83;;;;;;;;;;4356472;32;316835;-91
2023/09/10 03:23:24;;;;;;;6.62;2.25;;;;;;;;;;4367341;32;316454;-91
2023/09/10 03:25:52;;;;;;;5.07;2.08;;;;;;;;;;4368139;32;332444;-91
2023/09/10 03:28:20;;;;;;;4.12;2.45;;;;;;;;;;4351970;32;418905;-94
2023/09/10 03:30:48;;;;;;;4.87;2.30;;;;;;;;;;4367852;32;316799;-93
2023/09/10 03:33:16;;;;;;;10.52;2.50;;;;;;;;;;4358921;32;316890;-91
2023/09/10 03:35:44;;;;;;;7.20;2.30;;;;;;;;;;4365067;32;317716;-91
2023/09/10 03:38:13;;;;;;;7.20;2.50;;;;;;;;;;4348482;32;316659;-90
2023/09/10 03:40:41;;;;;;;5.60;3.50;;;;;;;;;;4365920;32;317493;-93
2023/09/10 03:43:08;;;;;;;6.20;4.03;;;;;;;;;;4357780;32;316792;-89
2023/09/10 03:45:36;;;;;;;4.75;2.92;;;;;;;;;;4368816;32;316622;-89
2023/09/10 03:48:04;;;;;;;4.82;2.50;;;;;;;;;;4356694;32;316870;-90
2023/09/10 03:50:31;;;;;;;7.05;2.22;;;;;;;;;;4366517;32;316631;-91
2023/09/10 03:52:59;;;;;;;5.10;2.45;;;;;;;;;;4356801;32;316546;-91
2023/09/10 03:55:28;;;;;;;7.85;2.58;;;;;;;;;;4366571;32;316071;-91
2023/09/10 03:57:56;;;;;;;10.77;4.40;;;;;;;;;;4357151;32;316655;-93
2023/09/10 04:00:23;;;;;;;6.60;3.58;;;;;;;;;;4359570;32;335599;-90
2023/09/10 04:02:51;;;;;;;9.90;4.45;;;;;;;;;;4367358;32;316920;-92
2023/09/10 04:05:20;;;;;;;8.13;5.05;;;;;;;;;;4354714;32;415847;-91
2023/09/10 04:07:47;;;;;;;6.72;3.42;;;;;;;;;;4367421;32;316854;-92
2023/09/10 04:10:15;;;;;;;5.05;2.80;;;;;;;;;;4352847;32;316884;-92
2023/09/10 04:12:44;;;;;;;9.10;3.80;;;;;;;;;;4366062;32;316896;-93
2023/09/10 04:15:11;;;;;;;3.10;2.33;;;;;;;;;;4357013;32;317323;-91
2023/09/10 04:17:39;;;;;;;4.03;2.37;;;;;;;;;;4368575;32;317077;-90
2023/09/10 04:20:08;;;;;;;4.37;2.95;;;;;;;;;;4352552;32;317016;-91
2023/09/10 04:22:36;;;;;;;12.80;2.72;;;;;;;;;;4368067;32;316829;-91
2023/09/10 04:25:04;;;;;;;10.65;3.50;;;;;;;;;;4354219;32;317926;-91
2023/09/10 04:27:31;;;;;;;4.60;2.97;;;;;;;;;;4366489;32;317982;-91
2023/09/10 04:30:03;;;;;;;5.97;2.37;;;;;;;;;;4357407;32;317022;-91
2023/09/10 04:32:30;;;;;;;6.30;3.00;;;;;;;;;;4367412;32;316614;-92
2023/09/10 04:34:58;;;;;;;4.47;2.50;;;;;;;;;;4356703;32;316778;-92
2023/09/10 04:37:26;;;;;;;4.62;2.65;;;;;;;;;;4367410;32;317219;-92
2023/09/10 04:39:54;;;;;;;5.35;3.62;;;;;;;;;;4357364;32;316679;-92
2023/09/10 04:42:21;;;;;;;10.18;8.50;;;;;;;;;;4363894;32;316903;-90
2023/09/10 04:44:49;;;;;;;8.07;5.72;;;;;;;;;;4368297;32;317839;-91
2023/09/10 04:47:18;;;;;;;8.70;6.45;;;;;;;;;;4355333;32;316834;-86
2023/09/10 04:49:45;;;;;;;9.60;5.43;;;;;;;;;;4366422;32;329014;-86
2023/09/10 04:52:15;;;;;;;12.55;4.85;;;;;;;;;;4357020;32;316564;-86
2023/09/10 04:54:42;;;;;;;9.73;3.95;;;;;;;;;;4367399;32;318183;-87
2023/09/10 04:57:11;;;;;;;6.82;4.25;;;;;;;;;;4360810;32;316934;-84
2023/09/10 04:59:38;;;;;;;13.07;3.75;;;;;;;;;;4368953;32;316885;-85
2023/09/10 05:02:06;;;;;;;7.10;4.15;;;;;;;;;;4359247;32;317961;-87
2023/09/10 05:04:35;;;;;;;5.37;3.87;;;;;;;;;;4370947;32;316834;-80
2023/09/10 05:07:02;;;;;;;8.38;5.43;;;;;;;;;;4361636;32;316902;-82
2023/09/10 05:09:30;;;;;;;9.23;4.22;;;;;;;;;;4370597;32;316969;-84
2023/09/10 05:11:57;;;;;;;12.02;4.70;;;;;;;;;;4359008;32;316856;-85
2023/09/10 05:14:27;;;;;;;9.75;4.60;;;;;;;;;;4368483;32;317959;-85
2023/09/10 05:16:54;;;;;;;11.35;4.47;;;;;;;;;;4359357;32;328830;-82
2023/09/10 05:19:24;;;;;;;10.70;4.87;;;;;;;;;;4370867;32;318106;-82
2023/09/10 05:21:53;;;;;;;6.62;3.90;;;;;;;;;;4368472;32;317788;-90
2023/09/10 05:24:20;;;;;;;9.48;3.95;;;;;;;;;;4352412;32;415226;-82
2023/09/10 05:26:47;;;;;;;14.80;4.40;;;;;;;;;;4369063;32;317239;-82
2023/09/10 05:29:15;;;;;;;23.62;4.72;;;;;;;;;;4359765;32;317684;-82
2023/09/10 05:31:42;;;;;;;13.75;4.62;;;;;;;;;;4370303;32;317983;-81
2023/09/10 05:34:10;;;;;;;14.68;4.65;;;;;;;;;;4355984;32;318165;-83
2023/09/10 05:36:37;;;;;;;6.78;5.00;;;;;;;;;;4370464;32;317925;-81
2023/09/10 05:39:06;;;;;;;18.98;4.72;;;;;;;;;;4358988;32;316826;-81
2023/09/10 05:41:34;;;;;;;8.38;4.80;;;;;;;;;;4370752;32;317828;-81
2023/09/10 05:44:02;;;;;;;16.92;4.53;;;;;;;;;;4359118;32;337630;-82
2023/09/10 05:46:30;;;;;;;10.68;5.87;;;;;;;;;;4369512;32;316855;-82
2023/09/10 05:48:57;;;;;;;6.43;4.43;;;;;;;;;;4359070;32;346128;-82
2023/09/10 05:51:24;;;;;;;8.13;4.43;;;;;;;;;;4369571;32;316978;-81
2023/09/10 05:53:52;;;;;;;12.88;3.92;;;;;;;;;;4374478;32;318075;-82
2023/09/10 05:56:20;;;;;;;6.87;4.03;;;;;;;;;;4357230;32;318062;-82
2023/09/10 05:58:48;;;;;;;12.23;4.00;;;;;;;;;;4370542;32;316961;-82
2023/09/10 06:01:15;;;;;;;13.32;3.97;;;;;;;;;;4358321;32;317878;-82
2023/09/10 06:03:42;;;;;;;8.60;3.60;;;;;;;;;;4369481;32;318170;-82
2023/09/10 06:06:10;;;;;;;14.25;4.43;;;;;;;;;;4357710;32;317112;-82
2023/09/10 06:08:37;;;;;;;7.32;2.95;;;;;;;;;;4369093;32;318140;-81
2023/09/10 06:11:05;;;;;;;12.77;4.28;;;;;;;;;;4359176;32;316801;-81
2023/09/10 06:13:33;;;;;;;11.15;4.43;;;;;;;;;;4369951;32;318121;-81
2023/09/10 06:16:01;;;;;;;10.02;4.40;;;;;;;;;;4358211;32;318078;-82
2023/09/10 06:18:28;;;;;;;7.97;4.05;;;;;;;;;;4366854;32;317889;-82
2023/09/10 06:20:55;;;;;;;11.32;4.35;;;;;;;;;;4357463;32;317027;-82
2023/09/10 06:23:23;;;;;;;9.35;3.87;;;;;;;;;;4370333;32;318239;-81
2023/09/10 06:25:51;;;;;;;8.13;3.60;;;;;;;;;;4370341;32;316857;-81
2023/09/10 06:28:20;;;;;;;10.90;3.60;;;;;;;;;;4352556;32;414852;-82
2023/09/10 06:30:49;;;;;;;8.35;3.87;;;;;;;;;;4367491;32;318025;-83
2023/09/10 06:33:16;;;;;;;7.72;4.47;;;;;;;;;;4355654;32;316978;-82
2023/09/10 06:35:44;;;;;;;8.73;4.93;;;;;;;;;;4368076;32;316847;-81
2023/09/10 06:38:11;;;;;;;7.10;4.97;;;;;;;;;;4355470;32;316811;-83
2023/09/10 06:40:39;;;;;;;20.75;6.47;;;;;;;;;;4368096;32;316625;-86
2023/09/10 06:43:08;;;;;;;12.00;6.10;;;;;;;;;;4358028;32;352008;-85
2023/09/10 06:45:36;;;;;;;16.23;7.78;;;;;;;;;;4367997;32;317948;-87
2023/09/10 06:48:06;;;;;;;12.13;7.47;;;;;;;;;;4356862;32;318501;-87
2023/09/10 06:50:33;;;;;;;13.02;5.95;;;;;;;;;;4365918;32;317880;-88
2023/09/10 06:53:00;;;;;;;16.87;8.80;;;;;;;;;;4356180;32;317726;-88
2023/09/10 06:55:28;;;;;;;13.95;7.97;;;;;;;;;;4369669;32;318172;-87
2023/09/10 06:57:55;;;;;;;13.82;7.37;;;;;;;;;;4358827;32;317863;-82
2023/09/10 07:00:25;;;;;;;10.18;7.35;;;;;;;;;;4365857;32;317952;-86
2023/09/10 07:02:52;;;;;;;15.90;7.82;;;;;;;;;;4369074;32;317860;-85
2023/09/10 07:05:21;;;;;;;19.62;8.98;;;;;;;;;;4355268;32;417084;-84
2023/09/10 07:07:53;;;;;;;15.35;8.60;;;;;;;;;;4368906;32;317812;-83
2023/09/10 07:10:20;;;;;;;18.10;10.52;;;;;;;;;;4353482;32;419810;-84
2023/09/10 07:12:48;;;;;;;18.40;9.98;;;;;;;;;;4368271;32;318790;-86
2023/09/10 07:15:15;;;;;;;17.87;10.85;;;;;;;;;;4355672;32;317992;-85
2023/09/10 07:17:43;;;;;;;17.67;9.45;;;;;;;;;;4368877;32;318923;-89
2023/09/10 07:20:11;;;;;;;21.08;9.48;;;;;;;;;;4359260;32;318175;-84
2023/09/10 07:22:40;;;;;;;15.65;9.52;;;;;;;;;;4364961;32;317811;-85
2023/09/10 07:25:08;;;;;;;19.15;9.52;;;;;;;;;;4358784;32;318125;-84
2023/09/10 07:27:35;;;;;;;13.70;8.32;;;;;;;;;;4366942;32;355409;-86
2023/09/10 07:30:03;;;;;;;22.77;8.35;;;;;;;;;;4357576;32;317839;-83
2023/09/10 07:32:30;;;;;;;19.95;9.65;;;;;;;;;;4366026;32;341360;-90
2023/09/10 07:34:58;;;;;;;15.32;8.63;;;;;;;;;;4357240;32;317722;-85
2023/09/10 07:37:25;;;;;;;15.90;9.95;;;;;;;;;;4369464;32;317983;-85
2023/09/10 07:39:54;;;;;;;17.70;9.05;;;;;;;;;;4367008;32;318198;-83
2023/09/10 07:42:21;;;;;;;15.65;10.10;;;;;;;;;;4351538;32;416680;-83
2023/09/10 07:44:49;;;;;;;16.73;9.88;;;;;;;;;;4368054;32;318768;-83
2023/09/10 07:47:16;;;;;;;13.00;9.10;;;;;;;;;;4357422;32;317751;-83
2023/09/10 07:49:45;;;;;;;15.30;8.25;;;;;;;;;;4368396;32;317865;-86
2023/09/10 07:52:13;;;;;;;15.30;8.43;;;;;;;;;;4355718;32;317951;-86
2023/09/10 07:54:42;;;;;;;17.58;9.13;;;;;;;;;;4367803;32;317853;-84
2023/09/10 07:57:11;;;;;;;14.20;7.47;;;;;;;;;;4354933;32;317878;-83
2023/09/10 07:59:38;;;;;;;13.05;8.30;;;;;;;;;;4368551;32;317807;-88
2023/09/10 08:02:06;;;;;;;16.33;7.93;;;;;;;;;;4356722;32;330906;-85
2023/09/10 08:04:33;;;;;;;16.75;7.80;;;;;;;;;;4364856;32;346943;-84
2023/09/10 08:07:03;;;;;;;11.52;6.50;;;;;;;;;;4357626;32;317625;-84
2023/09/10 08:09:31;;;;;;;11.15;4.72;;;;;;;;;;4367991;32;318075;-85
2023/09/10 08:11:58;;;;;;;9.30;5.20;;;;;;;;;;4357033;32;318008;-85
2023/09/10 08:14:27;;;;;;;12.57;6.10;;;;;;;;;;4365293;32;316855;-85
2023/09/10 08:16:55;;;;;;;7.43;4.35;;;;;;;;;;4355308;32;317644;-86
2023/09/10 08:19:22;;;;;;;5.40;3.72;;;;;;;;;;4368732;32;317207;-85
2023/09/10 08:21:50;;;;;;;8.32;3.25;;;;;;;;;;4365421;32;316853;-88
2023/09/10 08:24:17;;;;;;;5.62;3.58;;;;;;;;;;4356033;32;316655;-85
2023/09/10 08:26:44;;;;;;;7.65;3.17;;;;;;;;;;4366575;32;316807;-85
2023/09/10 08:29:12;;;;;;;6.28;3.60;;;;;;;;;;4358171;32;316868;-85
2023/09/10 08:31:41;;;;;;;12.85;2.87;;;;;;;;;;4367684;32;316438;-85
2023/09/10 08:34:08;;;;;;;8.25;2.92;;;;;;;;;;4354598;32;317978;-85
2023/09/10 08:36:35;;;;;;;5.82;2.87;;;;;;;;;;4368211;32;316649;-84
2023/09/10 08:39:03;;;;;;;7.17;2.90;;;;;;;;;;4356515;32;316731;-85
2023/09/10 08:41:36;;;;;;;4.18;2.97;;;;;;;;;;4367561;32;316665;-83
2023/09/10 08:44:05;;;;;;;8.27;3.20;;;;;;;;;;4356085;32;316649;-85
2023/09/10 08:46:35;;;;;;;6.72;3.08;;;;;;;;;;4365990;32;316832;-84
2023/09/10 08:49:04;;;;;;;11.70;2.42;;;;;;;;;;4358687;32;316714;-84
2023/09/10 08:51:33;;;;;;;3.65;2.28;;;;;;;;;;4368243;32;317557;-87
2023/09/10 08:54:03;;;;;;;7.90;2.83;;;;;;;;;;4356338;32;316814;-84
2023/09/10 08:56:30;;;;;;;8.30;2.80;;;;;;;;;;4366522;32;316937;-83
2023/09/10 08:58:59;;;;;;;8.43;3.17;;;;;;;;;;4356490;32;316726;-83
2023/09/10 09:01:26;;;;;;;5.80;3.00;;;;;;;;;;4366224;32;316828;-84
2023/09/10 09:03:54;;;;;;;11.65;3.03;;;;;;;;;;4361104;32;316710;-83
2023/09/10 09:06:25;;;;;;;5.80;2.42;;;;;;;;;;4366253;32;318031;-83
2023/09/10 09:08:55;;;;;;;5.82;2.47;;;;;;;;;;4367694;32;316734;-84
2023/09/10 09:11:23;;;;;;;4.80;2.80;;;;;;;;;;4355586;32;416539;-83
2023/09/10 09:13:53;;;;;;;3.65;2.05;;;;;;;;;;4367462;32;316562;-83
2023/09/10 09:16:22;;;;;;;7.15;3.03;;;;;;;;;;4354171;32;416300;-85
2023/09/10 09:18:50;;;;;;;7.50;2.55;;;;;;;;;;4364883;32;316854;-84
2023/09/10 09:21:20;;;;;;;10.48;3.15;;;;;;;;;;4356205;32;346830;-84
2023/09/10 09:23:53;;;;;;;6.70;2.70;;;;;;;;;;4367350;32;317638;-85
2023/09/10 09:26:22;;;;;;;5.43;2.78;;;;;;;;;;4353231;32;416459;-87
2023/09/10 09:28:50;;;;;;;4.87;3.30;;;;;;;;;;4367720;32;316690;-87
2023/09/10 09:31:21;;;;;;;3.55;2.17;;;;;;;;;;4355830;32;347916;-87
2023/09/10 09:33:49;;;;;;;3.15;2.42;;;;;;;;;;4367505;32;316683;-87
2023/09/10 09:36:16;;;;;;;5.40;2.90;;;;;;;;;;4356428;32;316974;-83
2023/09/10 09:38:45;;;;;;;7.28;2.42;;;;;;;;;;4369481;32;316639;-88
2023/09/10 09:41:15;;;;;;;10.13;2.80;;;;;;;;;;4360975;32;316551;-87
2023/09/10 09:43:43;;;;;;;9.50;3.08;;;;;;;;;;4369740;32;317792;-86
2023/09/10 09:46:11;;;;;;;4.37;2.65;;;;;;;;;;4358975;32;316677;-86
2023/09/10 09:48:39;;;;;;;11.43;3.40;;;;;;;;;;4370612;32;316564;-86
2023/09/10 09:51:07;;;;;;;8.05;2.87;;;;;;;;;;4358839;32;317726;-86
2023/09/10 09:53:35;;;;;;;10.85;2.70;;;;;;;;;;4370310;32;316553;-88
2023/09/10 09:56:04;;;;;;;11.48;3.03;;;;;;;;;;4358376;32;317768;-87
2023/09/10 09:58:34;;;;;;;3.62;2.62;;;;;;;;;;4356294;32;317749;-87
2023/09/10 10:01:02;;;;;;;6.78;2.80;;;;;;;;;;4369578;32;316943;-86
2023/09/10 10:03:31;;;;;;;5.37;3.12;;;;;;;;;;4360708;32;316910;-87
2023/09/10 10:05:58;;;;;;;5.55;3.08;;;;;;;;;;4370520;32;316642;-86
2023/09/10 10:08:27;;;;;;;3.40;2.60;;;;;;;;;;4359873;32;316688;-87
2023/09/10 10:10:55;;;;;;;5.18;2.75;;;;;;;;;;4365201;32;316666;-89
2023/09/10 10:13:25;;;;;;;8.88;3.47;;;;;;;;;;4369532;32;317055;-88
2023/09/10 10:15:55;;;;;;;3.25;2.20;;;;;;;;;;4357579;32;388034;-89
2023/09/10 10:18:26;;;;;;;7.62;3.95;;;;;;;;;;4367409;32;317066;-88
2023/09/10 10:20:54;;;;;;;14.10;2.95;;;;;;;;;;4356146;32;387641;-87
2023/09/10 10:23:22;;;;;;;4.35;3.47;;;;;;;;;;4369867;32;317744;-87
2023/09/10 10:25:49;;;;;;;5.28;3.08;;;;;;;;;;4356987;32;400153;-86
2023/09/10 10:28:18;;;;;;;3.35;2.47;;;;;;;;;;4368962;32;316628;-87
2023/09/10 10:30:51;;;;;;;6.57;3.72;;;;;;;;;;4368317;32;316790;-87
2023/09/10 10:33:22;;;;;;;6.32;3.33;;;;;;;;;;4356798;32;416328;-88
2023/09/10 10:36:00;;;;;;;6.68;4.87;;;;;;;;;;4354825;32;339366;-89
2023/09/10 10:38:33;;;;;;;7.12;2.85;;;;;;;;;;4367317;32;316856;-87
2023/09/10 10:41:04;;;;;;;7.47;3.15;;;;;;;;;;4358062;32;316874;-87
2023/09/10 10:43:38;;;;;;;13.65;3.20;;;;;;;;;;4368649;32;316494;-85
2023/09/10 10:46:09;;;;;;;7.62;3.17;;;;;;;;;;4349972;32;317772;-90
2023/09/10 10:48:42;;;;;;;13.98;3.37;;;;;;;;;;4367906;32;316585;-92
2023/09/10 10:51:16;;;;;;;8.32;3.40;;;;;;;;;;4358426;32;317853;-93
2023/09/10 10:53:45;;;;;;;4.28;2.90;;;;;;;;;;4368834;32;316745;-92
2023/09/10 10:56:15;;;;;;;8.73;2.75;;;;;;;;;;4352633;32;386611;-90
2023/09/10 10:58:43;;;;;;;6.93;3.12;;;;;;;;;;4368368;32;315525;-89
2023/09/10 11:01:13;;;;;;;5.55;2.87;;;;;;;;;;4356280;32;315306;-89
2023/09/10 11:03:45;;;;;;;10.45;3.72;;;;;;;;;;4367833;32;316671;-91
2023/09/10 11:06:13;;;;;;;5.50;2.95;;;;;;;;;;4348349;32;419878;-92
2023/09/10 11:08:42;;;;;;;3.30;2.75;;;;;;;;;;4369375;32;316787;-90
2023/09/10 11:11:13;;;;;;;11.32;3.17;;;;;;;;;;4358634;32;350867;-89
2023/09/10 11:14:01;;;;;;;7.65;3.97;;;;;;;;;;4369571;32;317702;-89
2023/09/10 11:16:31;;;;;;;4.78;2.67;;;;;;;;;;4354652;32;419229;-90
2023/09/10 11:19:03;;;;;;;6.95;3.15;;;;;;;;;;4356629;32;317214;-88
2023/09/10 11:22:07;;;;;;;9.43;3.20;;;;;;;;;;4368686;32;316868;-90
2023/09/10 11:24:36;;;;;;;8.82;3.10;;;;;;;;;;4350381;32;420360;-89
2023/09/10 11:27:23;;;;;;;5.53;3.00;;;;;;;;;;4358114;32;317053;-90
2023/09/10 11:30:13;;;;;;;5.28;2.78;;;;;;;;;;4356639;32;316702;-92
2023/09/10 11:32:41;;;;;;;6.00;3.15;;;;;;;;;;4369612;32;317006;-90
2023/09/10 11:35:27;;;;;;;5.60;3.40;;;;;;;;;;4354979;32;316829;-90
2023/09/10 11:37:59;;;;;;;6.22;3.37;;;;;;;;;;4356627;32;316980;-93
2023/09/10 11:40:28;;;;;;;5.28;3.22;;;;;;;;;;4368158;32;316804;-94
2023/09/10 11:42:56;;;;;;;6.60;3.28;;;;;;;;;;4356524;32;317049;-91
2023/09/10 11:45:30;;;;;;;6.00;4.03;;;;;;;;;;4368839;32;316700;-90
2023/09/10 11:47:57;;;;;;;4.78;3.67;;;;;;;;;;4357797;32;316849;-91
2023/09/10 11:50:26;;;;;;;4.60;3.20;;;;;;;;;;4363227;32;316633;-94
2023/09/10 11:52:54;;;;;;;6.78;4.20;;;;;;;;;;4355275;32;316584;-89
2023/09/10 11:55:22;;;;;;;6.55;3.65;;;;;;;;;;4365427;32;316693;-89
2023/09/10 11:57:50;;;;;;;5.80;3.47;;;;;;;;;;4357334;32;316738;-89
2023/09/10 12:00:17;;;;;;;11.75;3.70;;;;;;;;;;4360988;32;316781;-90
2023/09/10 12:02:45;;;;;;;4.90;3.45;;;;;;;;;;4366059;32;317642;-90
2023/09/10 12:05:13;;;;;;;10.05;3.33;;;;;;;;;;4357923;32;316866;-89
2023/09/10 12:07:44;;;;;;;4.82;3.78;;;;;;;;;;4367991;32;317571;-89
2023/09/10 12:10:13;;;;;;;5.65;3.70;;;;;;;;;;4352289;32;316643;-87
2023/09/10 12:12:46;;;;;;;6.32;3.60;;;;;;;;;;4367418;32;346443;-90
2023/09/10 12:15:14;;;;;;;10.57;3.78;;;;;;;;;;4351311;32;415797;-87
2023/09/10 12:17:42;;;;;;;7.75;4.10;;;;;;;;;;4367238;32;327419;-87
2023/09/10 12:20:12;;;;;;;8.65;3.78;;;;;;;;;;4349738;32;316648;-88
2023/09/10 12:22:39;;;;;;;10.63;4.10;;;;;;;;;;4367158;32;317000;-88
2023/09/10 12:25:09;;;;;;;6.32;3.60;;;;;;;;;;4356621;32;336720;-92
2023/09/10 12:27:37;;;;;;;14.00;4.18;;;;;;;;;;4365224;32;316876;-86
2023/09/10 12:30:06;;;;;;;6.97;3.92;;;;;;;;;;4351660;32;318093;-87
2023/09/10 12:32:34;;;;;;;6.82;3.75;;;;;;;;;;4367551;32;316558;-88
2023/09/10 12:35:02;;;;;;;9.18;4.35;;;;;;;;;;4356497;32;316647;-86
2023/09/10 12:37:29;;;;;;;12.70;3.92;;;;;;;;;;4366884;32;315585;-87
2023/09/10 12:40:00;;;;;;;4.32;3.25;;;;;;;;;;4357044;32;317480;-89
2023/09/10 12:42:29;;;;;;;9.20;3.92;;;;;;;;;;4366375;32;315377;-86
2023/09/10 12:44:57;;;;;;;6.05;3.15;;;;;;;;;;4356740;32;316536;-86
2023/09/10 12:47:24;;;;;;;5.95;3.62;;;;;;;;;;4366139;32;316825;-87
2023/09/10 12:49:52;;;;;;;5.35;3.60;;;;;;;;;;4353065;32;347877;-86
2023/09/10 12:52:19;;;;;;;4.87;3.42;;;;;;;;;;4366534;32;316841;-86
2023/09/10 12:54:47;;;;;;;8.98;3.45;;;;;;;;;;4365849;32;316683;-86
2023/09/10 12:57:15;;;;;;;6.62;4.12;;;;;;;;;;4354090;32;416034;-86
2023/09/10 12:59:44;;;;;;;5.18;3.67;;;;;;;;;;4365939;32;316699;-85
2023/09/10 13:02:11;;;;;;;8.80;3.87;;;;;;;;;;4353937;32;317130;-86
2023/09/10 13:04:39;;;;;;;5.28;3.03;;;;;;;;;;4366170;32;355565;-86
2023/09/10 13:07:06;;;;;;;4.03;3.08;;;;;;;;;;4356182;32;317006;-85
2023/09/10 13:09:34;;;;;;;9.38;4.00;;;;;;;;;;4367648;32;316609;-86
2023/09/10 13:12:01;;;;;;;5.93;3.87;;;;;;;;;;4350577;32;316663;-86
2023/09/10 13:14:29;;;;;;;6.78;3.55;;;;;;;;;;4369315;32;336234;-87
2023/09/10 13:16:58;;;;;;;7.20;3.92;;;;;;;;;;4359877;32;317486;-86
2023/09/10 13:19:25;;;;;;;8.85;3.47;;;;;;;;;;4370188;32;317037;-91
2023/09/10 13:21:53;;;;;;;7.95;3.70;;;;;;;;;;4357738;32;317222;-87
2023/09/10 13:24:21;;;;;;;6.37;3.20;;;;;;;;;;4363490;32;316651;-86
2023/09/10 13:26:48;;;;;;;6.70;3.00;;;;;;;;;;4359835;32;317934;-87
2023/09/10 13:29:16;;;;;;;7.80;3.25;;;;;;;;;;4370023;32;316957;-86
2023/09/10 13:31:44;;;;;;;5.05;3.12;;;;;;;;;;4369143;32;316816;-85
2023/09/10 13:34:13;;;;;;;5.12;3.37;;;;;;;;;;4355390;32;317018;-86
2023/09/10 13:36:40;;;;;;;7.00;3.30;;;;;;;;;;4369581;32;316761;-86
2023/09/10 13:39:08;;;;;;;5.97;4.25;;;;;;;;;;4358952;32;316755;-85
2023/09/10 13:41:36;;;;;;;10.52;3.12;;;;;;;;;;4371867;32;316730;-85
2023/09/10 13:44:03;;;;;;;7.10;3.10;;;;;;;;;;4355472;32;318312;-91
2023/09/10 13:46:30;;;;;;;11.40;3.08;;;;;;;;;;4369731;32;316699;-85
2023/09/10 13:48:58;;;;;;;10.02;3.33;;;;;;;;;;4358228;32;332745;-81
2023/09/10 13:51:27;;;;;;;7.32;4.07;;;;;;;;;;4348621;32;317923;-88
2023/09/10 13:53:54;;;;;;;6.90;3.75;;;;;;;;;;4357655;32;316675;-87
2023/09/10 13:56:21;;;;;;;9.75;3.30;;;;;;;;;;4365504;32;317112;-87
2023/09/10 13:58:49;;;;;;;9.57;3.67;;;;;;;;;;4355262;32;316976;-88
2023/09/10 14:01:16;;;;;;;6.55;3.10;;;;;;;;;;4371089;32;316711;-90
2023/09/10 14:03:44;;;;;;;6.32;3.33;;;;;;;;;;4373048;32;316929;-90
2023/09/10 14:06:11;;;;;;;6.37;2.90;;;;;;;;;;4355655;32;316674;-95
2023/09/10 14:08:40;;;;;;;6.95;3.67;;;;;;;;;;4374585;27;316893;-87
2023/09/10 14:11:08;;;;;;;4.12;3.33;;;;;;;;;;4350897;32;316675;-87
2023/09/10 14:13:35;;;;;;;7.37;3.55;;;;;;;;;;4359971;32;316666;-88
2023/09/10 14:16:04;;;;;;;5.05;3.70;;;;;;;;;;4342600;32;316685;-87
2023/09/10 14:18:32;;;;;;;4.28;2.92;;;;;;;;;;4354456;32;316972;-92
2023/09/10 14:20:59;;;;;;;6.85;3.30;;;;;;;;;;4344591;32;316749;-93
2023/09/10 14:23:28;;;;;;;5.20;3.53;;;;;;;;;;4354229;32;317037;-87
2023/09/10 14:25:58;;;;;;;10.32;4.25;;;;;;;;;;4343894;32;316704;-93
2023/09/10 14:28:25;;;;;;;9.65;3.35;;;;;;;;;;4353658;32;317814;-92
2023/09/10 14:30:53;;;;;;;7.12;3.75;;;;;;;;;;4342977;32;316649;-94
2023/09/10 14:33:21;;;;;;;8.35;3.17;;;;;;;;;;4354134;32;316796;-90
2023/09/10 14:35:52;;;;;;;10.48;3.58;;;;;;;;;;4343256;32;316683;-84